createdAt,value
2023-03-25T00:02:38.162Z,4.05
2023-03-25T00:07:43.283Z,6.40
2023-03-25T00:12:46.725Z,4.45
2023-03-25T00:17:50.333Z,5.63
2023-03-25T00:22:56.265Z,4.13
2023-03-25T00:28:02.006Z,4.70
2023-03-25T00:33:05.646Z,4.45
2023-03-25T00:38:10.490Z,3.72
2023-03-25T00:43:15.085Z,6.00
2023-03-25T00:48:18.478Z,5.88
2023-03-25T00:53:23.720Z,5.45
2023-03-25T00:58:27.181Z,4.43
2023-03-25T01:03:30.637Z,4.68
2023-03-25T01:08:35.926Z,4.47
2023-03-25T01:13:39.741Z,5.20
2023-03-25T01:18:43.139Z,5.90
2023-03-25T01:23:47.983Z,5.43
2023-03-25T01:28:51.403Z,5.35
2023-03-25T01:33:55.086Z,5.07
2023-03-25T01:39:01.539Z,5.85
2023-03-25T01:44:09.624Z,5.43
2023-03-25T01:49:18.134Z,6.65
2023-03-25T01:54:23.209Z,9.63
2023-03-25T01:59:29.512Z,9.13
2023-03-25T02:04:40.427Z,6.30
2023-03-25T02:09:45.315Z,7.97
2023-03-25T02:14:48.741Z,6.53
2023-03-25T02:20:25.229Z,10.73
2023-03-25T02:26:00.411Z,9.98
2023-03-25T02:31:28.826Z,7.72
2023-03-25T02:37:03.375Z,8.57
2023-03-25T02:42:16.675Z,6.50
2023-03-25T02:47:23.701Z,7.50
2023-03-25T02:52:30.913Z,6.70
2023-03-25T02:57:38.381Z,8.60
2023-03-25T03:07:55.726Z,7.72
2023-03-25T03:13:11.968Z,6.78
2023-03-25T03:18:27.160Z,7.28
2023-03-25T03:23:37.081Z,6.75
2023-03-25T03:28:47.203Z,8.85
2023-03-25T03:33:55.290Z,8.27
2023-03-25T03:39:02.328Z,6.38
2023-03-25T03:44:12.478Z,6.72
2023-03-25T03:49:18.864Z,7.10
2023-03-25T03:54:25.586Z,7.68
2023-03-25T03:59:39.137Z,7.93
2023-03-25T04:04:43.664Z,8.63
2023-03-25T04:09:58.232Z,5.55
2023-03-25T04:15:05.272Z,8.43
2023-03-25T04:20:16.004Z,8.25
2023-03-25T04:25:21.576Z,6.18
2023-03-25T04:30:28.074Z,6.60
2023-03-25T04:35:33.121Z,8.77
2023-03-25T04:40:40.574Z,6.43
2023-03-25T04:45:49.541Z,6.65
2023-03-25T04:50:56.199Z,6.28
2023-03-25T04:56:00.218Z,6.25
2023-03-25T05:01:06.945Z,8.18
2023-03-25T05:06:11.424Z,5.60
2023-03-25T05:11:14.876Z,6.82
2023-03-25T05:16:19.951Z,6.32
2023-03-25T05:21:23.455Z,9.15
2023-03-25T05:26:29.444Z,5.88
2023-03-25T05:31:34.607Z,6.55
2023-03-25T05:36:38.103Z,4.35
2023-03-25T05:41:41.697Z,5.57
2023-03-25T05:46:49.204Z,10.07
2023-03-25T05:51:54.181Z,8.82
2023-03-25T05:56:57.628Z,4.35
2023-03-25T06:02:02.490Z,5.10
2023-03-25T06:07:13.954Z,5.03
2023-03-25T06:12:20.000Z,6.22
2023-03-25T06:17:24.945Z,5.43
2023-03-25T06:22:28.361Z,6.40
2023-03-25T06:27:34.254Z,6.57
2023-03-25T06:32:39.496Z,9.02
2023-03-25T06:37:43.150Z,9.52
2023-03-25T06:42:46.624Z,5.25
2023-03-25T06:47:51.444Z,6.05
2023-03-25T06:52:55.026Z,8.70
2023-03-25T06:58:01.297Z,5.78
2023-03-25T07:03:06.459Z,7.60
2023-03-25T07:08:09.890Z,6.03
2023-03-25T07:13:13.642Z,7.20
2023-03-25T07:18:18.427Z,8.00
2023-03-25T07:23:21.958Z,7.25
2023-03-25T07:28:25.435Z,6.15
2023-03-25T07:33:30.733Z,5.15
2023-03-25T07:38:34.257Z,7.63
2023-03-25T07:43:37.859Z,5.43
2023-03-25T07:48:42.803Z,5.18
2023-03-25T07:53:46.631Z,3.55
2023-03-25T07:58:50.075Z,4.93
2023-03-25T08:03:54.883Z,4.90
2023-03-25T08:08:58.305Z,4.22
2023-03-25T08:14:01.710Z,3.50
2023-03-25T08:19:06.975Z,5.50
2023-03-25T08:24:11.549Z,5.93
2023-03-25T08:29:17.528Z,5.90
2023-03-25T08:34:23.865Z,2.15
2023-03-25T08:39:37.094Z,3.08
2023-03-25T08:44:41.811Z,2.08
2023-03-25T08:49:46.554Z,3.47
2023-03-25T08:54:51.058Z,3.53
2023-03-25T08:59:54.461Z,3.55
2023-03-25T09:04:59.203Z,2.00
2023-03-25T09:10:03.476Z,2.35
2023-03-25T09:15:08.385Z,3.13
2023-03-25T09:20:13.443Z,3.70
2023-03-25T09:25:17.420Z,5.10
2023-03-25T09:30:20.906Z,2.05
2023-03-25T09:35:25.853Z,2.15
2023-03-25T09:40:29.372Z,2.75
2023-03-25T09:45:37.629Z,2.13
2023-03-25T09:50:44.817Z,3.30
2023-03-25T09:55:50.658Z,1.45
2023-03-25T10:01:01.110Z,1.75
2023-03-25T10:06:18.802Z,1.23
2023-03-25T10:11:30.719Z,1.38
2023-03-25T10:16:41.601Z,1.80
2023-03-25T10:21:53.887Z,2.42
2023-03-25T10:27:03.431Z,3.25
2023-03-25T10:32:12.382Z,3.72
2023-03-25T10:37:24.199Z,3.75
2023-03-25T10:42:34.963Z,2.70
2023-03-25T10:47:40.273Z,2.25
2023-03-25T10:52:46.484Z,1.92
2023-03-25T10:57:51.843Z,3.95
2023-03-25T11:02:57.038Z,2.75
2023-03-25T11:08:14.769Z,1.25
2023-03-25T11:13:26.976Z,0.93
2023-03-25T11:18:35.055Z,1.65
2023-03-25T11:23:45.832Z,2.92
2023-03-25T11:28:50.906Z,1.27
2023-03-25T11:34:06.854Z,1.40
2023-03-25T11:39:18.266Z,3.53
2023-03-25T11:44:24.508Z,3.90
2023-03-25T11:49:29.689Z,3.10
2023-03-25T11:54:36.961Z,2.30
2023-03-25T11:59:45.686Z,6.15
2023-03-25T12:05:00.627Z,3.10
2023-03-25T12:10:08.738Z,2.33
2023-03-25T12:15:25.206Z,3.22
2023-03-25T12:20:36.749Z,3.47
2023-03-25T12:25:54.976Z,0.98
2023-03-25T12:31:07.464Z,3.72
2023-03-25T12:36:21.269Z,1.73
2023-03-25T12:42:09.473Z,1.48
2023-03-25T12:47:18.621Z,1.65
2023-03-25T12:52:34.464Z,0.77
2023-03-25T12:57:52.649Z,2.70
2023-03-25T13:03:33.515Z,1.60
2023-03-25T13:17:42.642Z,1.33
2023-03-25T13:22:50.386Z,0.82
2023-03-25T13:27:56.702Z,2.72
2023-03-25T13:33:08.168Z,1.00
2023-03-25T13:38:18.536Z,1.15
2023-03-25T13:43:28.670Z,1.80
2023-03-25T13:48:41.466Z,3.00
2023-03-25T13:59:04.857Z,1.63
2023-03-25T14:04:33.718Z,1.38
2023-03-25T14:10:03.760Z,2.67
2023-03-25T14:15:12.905Z,2.17
2023-03-25T14:20:24.525Z,0.75
2023-03-25T14:25:37.268Z,2.75
2023-03-25T14:30:42.784Z,0.90
2023-03-25T14:35:51.909Z,0.88
2023-03-25T14:41:03.109Z,1.13
2023-03-25T14:46:18.264Z,0.77
2023-03-25T14:51:44.740Z,1.90
2023-03-25T14:56:55.788Z,0.90
2023-03-25T15:02:07.032Z,1.85
2023-03-25T15:07:18.520Z,2.05
2023-03-25T15:12:26.291Z,1.42
2023-03-25T15:17:43.459Z,5.40
2023-03-25T15:23:25.475Z,1.40
2023-03-25T15:28:52.761Z,2.72
2023-03-25T15:34:12.156Z,4.85
2023-03-25T15:39:31.899Z,5.63
2023-03-25T15:45:00.554Z,4.88
2023-03-25T15:50:28.410Z,1.50
2023-03-25T15:55:38.302Z,1.83
2023-03-25T16:00:47.123Z,1.08
2023-03-25T16:05:53.105Z,1.55
2023-03-25T16:10:57.922Z,1.92
2023-03-25T16:16:02.192Z,2.50
2023-03-25T16:21:05.965Z,1.73
2023-03-25T16:26:16.279Z,3.58
2023-03-25T16:31:34.800Z,6.22
2023-03-25T16:36:38.486Z,4.53
2023-03-25T16:41:46.434Z,4.35
2023-03-25T16:46:51.605Z,6.05
2023-03-25T16:51:57.578Z,4.00
2023-03-25T16:57:03.594Z,5.88
2023-03-25T17:02:25.600Z,4.65
2023-03-25T17:07:30.595Z,3.65
2023-03-25T17:12:36.085Z,3.30
2023-03-25T17:17:43.649Z,4.72
2023-03-25T17:23:00.239Z,3.88
2023-03-25T17:28:26.675Z,6.35
2023-03-25T17:33:35.217Z,24.17
2023-03-25T17:38:44.908Z,33.20
2023-03-25T17:43:51.324Z,13.60
2023-03-25T17:48:57.266Z,7.82
2023-03-25T17:54:01.441Z,4.75
2023-03-25T17:59:09.180Z,4.53
2023-03-25T18:04:14.909Z,4.72
2023-03-25T18:09:21.982Z,7.03
2023-03-25T18:14:27.034Z,3.22
2023-03-25T18:19:32.203Z,3.05
2023-03-25T18:24:35.665Z,5.97
2023-03-25T18:29:40.378Z,11.25
2023-03-25T18:34:44.754Z,9.95
2023-03-25T18:39:48.279Z,9.05
2023-03-25T18:44:53.136Z,10.43
2023-03-25T18:49:56.611Z,10.50
2023-03-25T18:55:00.121Z,11.25
2023-03-25T19:00:14.300Z,9.25
2023-03-25T19:05:18.715Z,8.02
2023-03-25T19:10:24.484Z,4.65
2023-03-25T19:15:32.181Z,3.17
2023-03-25T19:20:37.349Z,4.32
2023-03-25T19:25:41.525Z,3.70
2023-03-25T19:30:48.109Z,6.53
2023-03-25T19:35:54.344Z,3.55
2023-03-25T19:41:07.936Z,3.85
2023-03-25T19:46:12.836Z,4.07
2023-03-25T19:51:17.094Z,4.68
2023-03-25T19:56:24.202Z,3.85
2023-03-25T20:01:29.070Z,4.05
2023-03-25T20:06:32.655Z,5.00
2023-03-25T20:11:36.193Z,5.32
2023-03-25T20:16:41.378Z,6.03
2023-03-25T20:21:44.911Z,4.20
2023-03-25T20:26:48.381Z,4.60
2023-03-25T20:31:53.325Z,4.78
2023-03-25T20:36:56.765Z,3.85
2023-03-25T20:42:00.249Z,4.60
2023-03-25T20:47:06.064Z,3.60
2023-03-25T20:52:10.666Z,6.85
2023-03-25T20:57:14.123Z,6.65
2023-03-25T21:02:19.032Z,5.68
2023-03-25T21:07:23.847Z,5.85
2023-03-25T21:12:40.449Z,6.95
2023-03-25T21:17:48.557Z,8.88
2023-03-25T21:22:52.896Z,7.82
2023-03-25T21:27:56.292Z,9.65
2023-03-25T21:33:01.092Z,7.20
2023-03-25T21:38:07.349Z,11.30
2023-03-25T21:43:10.753Z,8.95
2023-03-25T21:48:17.612Z,8.90
2023-03-25T21:53:21.019Z,7.15
2023-03-25T21:58:24.849Z,7.35
2023-03-25T22:03:35.044Z,6.43
2023-03-25T22:08:39.575Z,5.90
2023-03-25T22:13:43.909Z,7.13
2023-03-25T22:18:49.541Z,5.10
2023-03-25T22:23:56.891Z,5.85
2023-03-25T22:29:02.440Z,4.25
2023-03-25T22:34:11.747Z,6.57
2023-03-25T22:39:15.163Z,5.57
2023-03-25T22:44:18.871Z,7.97
2023-03-25T22:49:23.922Z,4.18
2023-03-25T22:54:27.390Z,3.78
2023-03-25T22:59:31.323Z,4.10
2023-03-25T23:04:36.259Z,4.40
2023-03-25T23:09:42.396Z,4.18
2023-03-25T23:14:51.294Z,3.40
2023-03-25T23:19:56.372Z,5.05
2023-03-25T23:24:59.920Z,5.50
2023-03-25T23:30:05.092Z,3.20
2023-03-25T23:35:10.992Z,8.68
2023-03-25T23:40:14.515Z,3.88
2023-03-25T23:45:18.277Z,3.60
2023-03-25T23:50:23.012Z,3.83
2023-03-25T23:55:27.783Z,5.60
